Time;durP1;ratioP1;P1;durP2;ratioP2;P2;SDS_P1;SDS_P2;PMS_P1;PMS_P2;Temp;Humidity;BMP_temperature;BMP_pressure;BME280_temperature;BME280_humidity;BME280_pressure;Samples;Min_cycle;Max_cycle;Signal;HPM_P1;HPM_P2
2022/04/07 00:00:54;;;;;;;1.73;1.63;;;9.70;99.90;;;;;;5105703;28;20213;-83
2022/04/07 00:03:21;;;;;;;1.45;1.35;;;9.60;99.90;;;;;;5106483;28;20240;-82
2022/04/07 00:05:47;;;;;;;1.85;1.75;;;9.50;99.90;;;;;;5105482;28;20212;-83
2022/04/07 00:08:15;;;;;;;1.88;1.77;;;9.60;99.90;;;;;;5105479;28;20204;-82
2022/04/07 00:10:42;;;;;;;1.50;1.40;;;9.60;99.90;;;;;;5101277;28;20212;-81
2022/04/07 00:13:09;;;;;;;1.50;1.50;;;9.60;99.90;;;;;;5098484;28;20239;-80
2022/04/07 00:15:36;;;;;;;1.65;1.55;;;9.70;99.90;;;;;;5098275;28;20715;-82
2022/04/07 00:18:02;;;;;;;1.42;1.35;;;9.60;99.90;;;;;;5098877;28;20212;-81
2022/04/07 00:20:29;;;;;;;1.70;1.50;;;9.60;99.90;;;;;;5098853;28;20206;-81
2022/04/07 00:22:58;;;;;;;1.27;1.27;;;9.60;99.90;;;;;;5098796;28;20323;-81
2022/04/07 00:25:26;;;;;;;1.20;1.20;;;9.60;99.90;;;;;;5096497;28;20244;-81
2022/04/07 00:27:53;;;;;;;3.00;1.40;;;9.60;99.90;;;;;;5098822;28;20209;-81
2022/04/07 00:30:21;;;;;;;1.50;1.40;;;9.50;99.90;;;;;;5098676;28;20228;-81
2022/04/07 00:32:48;;;;;;;1.52;1.42;;;9.60;99.90;;;;;;5098018;28;20200;-80
2022/04/07 00:35:16;;;;;;;1.27;1.17;;;9.70;99.90;;;;;;5102070;28;20197;-83
2022/04/07 00:37:43;;;;;;;1.27;1.17;;;9.50;99.90;;;;;;5105644;28;20581;-83
2022/04/07 00:40:12;;;;;;;1.60;1.50;;;9.50;99.90;;;;;;5104919;28;20208;-83
2022/04/07 00:42:46;;;;;;;1.45;1.35;;;9.60;99.90;;;;;;5103523;28;20209;-83
2022/04/07 00:45:13;;;;;;;2.00;1.52;;;9.60;99.90;;;;;;5104749;28;20617;-82
2022/04/07 00:47:40;;;;;;;4.05;1.92;;;9.60;99.90;;;;;;5104012;28;20209;-83
2022/04/07 00:50:07;;;;;;;1.77;1.67;;;9.70;99.90;;;;;;5103117;28;20228;-82
2022/04/07 00:52:34;;;;;;;5.28;3.25;;;9.50;99.90;;;;;;5105240;28;20205;-82
2022/04/07 00:55:02;;;;;;;2.33;2.17;;;9.50;99.90;;;;;;5105683;28;20208;-83
2022/04/07 00:57:29;;;;;;;1.50;1.40;;;9.40;99.90;;;;;;5105369;28;20214;-82
2022/04/07 00:59:58;;;;;;;2.03;1.83;;;9.40;99.90;;;;;;5103469;28;20200;-81
2022/04/07 01:02:25;;;;;;;2.25;2.15;;;9.40;99.90;;;;;;5098602;28;20669;-81
2022/04/07 01:04:52;;;;;;;1.95;1.85;;;9.50;99.90;;;;;;5098425;28;20838;-81
2022/04/07 01:07:20;;;;;;;1.70;1.60;;;9.50;99.90;;;;;;5098465;28;20231;-81
2022/04/07 01:09:47;;;;;;;3.15;2.03;;;9.50;99.90;;;;;;5098833;28;20227;-82
2022/04/07 01:12:13;;;;;;;2.03;1.92;;;9.40;99.90;;;;;;5097733;28;20204;-82
2022/04/07 01:14:54;;;;;;;2.58;1.48;;;9.50;99.90;;;;;;5098357;28;20224;-82
2022/04/07 01:17:22;;;;;;;2.70;2.50;;;9.50;99.90;;;;;;5098556;28;20253;-82
2022/04/07 01:19:49;;;;;;;2.65;2.47;;;9.40;99.90;;;;;;5097952;28;20202;-82
2022/04/07 01:22:16;;;;;;;1.90;1.60;;;9.50;99.90;;;;;;5097818;28;20209;-82
2022/04/07 01:24:44;;;;;;;1.65;1.55;;;9.50;99.90;;;;;;5098189;28;20228;-82
2022/04/07 01:27:12;;;;;;;2.00;1.63;;;9.50;99.90;;;;;;5098231;28;20204;-82
2022/04/07 01:29:39;;;;;;;1.90;1.80;;;9.40;99.90;;;;;;5098501;28;20618;-82
2022/04/07 01:32:09;;;;;;;3.65;2.00;;;9.30;99.90;;;;;;5096950;28;20216;-82
2022/04/07 01:34:36;;;;;;;2.10;2.00;;;9.30;99.90;;;;;;5098412;28;20232;-82
2022/04/07 01:37:03;;;;;;;1.80;1.70;;;9.30;99.90;;;;;;5098006;28;20200;-82
2022/04/07 01:39:30;;;;;;;2.60;2.40;;;9.30;99.90;;;;;;5097719;28;20193;-81
2022/04/07 01:41:58;;;;;;;1.92;1.83;;;9.30;99.90;;;;;;5098016;28;20204;-81
2022/04/07 01:44:27;;;;;;;2.00;1.90;;;9.40;99.90;;;;;;5097765;28;20224;-81
2022/04/07 01:46:55;;;;;;;1.80;1.70;;;9.40;99.90;;;;;;5097751;28;20212;-81
2022/04/07 01:49:23;;;;;;;2.20;2.00;;;9.50;99.90;;;;;;5098776;28;20219;-81
2022/04/07 01:51:50;;;;;;;2.03;1.92;;;9.40;99.90;;;;;;5097392;28;20232;-80
2022/04/07 01:54:18;;;;;;;4.25;2.10;;;9.40;99.90;;;;;;5098305;28;20217;-81
2022/04/07 01:56:46;;;;;;;2.17;1.80;;;9.30;99.90;;;;;;5098512;28;20205;-81
2022/04/07 01:59:14;;;;;;;2.08;1.88;;;9.30;99.90;;;;;;5097697;28;20197;-81
2022/04/07 02:01:41;;;;;;;1.25;1.15;;;9.40;99.90;;;;;;5096910;28;20196;-81
2022/04/07 02:04:08;;;;;;;1.65;1.55;;;9.40;99.90;;;;;;5097427;28;20224;-81
2022/04/07 02:06:34;;;;;;;2.05;1.50;;;9.40;99.90;;;;;;5095383;28;20208;-80
2022/04/07 02:09:02;;;;;;;1.55;1.23;;;9.30;99.90;;;;;;5097209;28;20213;-81
2022/04/07 02:11:31;;;;;;;2.17;2.03;;;9.20;99.90;;;;;;5097569;28;20234;-81
2022/04/07 02:13:58;;;;;;;1.83;1.73;;;9.20;99.90;;;;;;5096970;28;20244;-80
2022/04/07 02:16:27;;;;;;;1.40;1.30;;;9.10;99.90;;;;;;5094622;28;20201;-80
2022/04/07 02:18:55;;;;;;;1.83;1.73;;;9.10;99.90;;;;;;5094153;28;20227;-80
2022/04/07 02:21:21;;;;;;;2.30;1.88;;;9.20;99.90;;;;;;5093734;28;20208;-80
2022/04/07 02:23:48;;;;;;;1.73;1.63;;;9.20;99.90;;;;;;5094702;28;20713;-80
2022/04/07 02:26:17;;;;;;;4.78;2.50;;;9.10;99.90;;;;;;5097363;28;20212;-80
2022/04/07 02:28:44;;;;;;;2.42;1.92;;;9.10;99.90;;;;;;5098241;28;20213;-81
2022/04/07 02:31:11;;;;;;;1.48;1.38;;;9.10;99.90;;;;;;5100363;28;20208;-81
2022/04/07 02:33:40;;;;;;;3.45;1.63;;;9.10;99.90;;;;;;5100415;28;20281;-81
2022/04/07 02:36:08;;;;;;;1.63;1.52;;;9.10;99.90;;;;;;5100781;28;20204;-80
2022/04/07 02:38:36;;;;;;;1.20;1.15;;;9.10;99.90;;;;;;5096552;28;20204;-81
2022/04/07 02:41:02;;;;;;;1.65;1.50;;;9.10;99.90;;;;;;5100439;28;20219;-81
2022/04/07 02:43:29;;;;;;;1.67;1.58;;;9.10;99.90;;;;;;5100166;28;20605;-81
2022/04/07 02:45:56;;;;;;;1.27;1.17;;;9.00;99.90;;;;;;5100255;28;20200;-81
2022/04/07 02:48:23;;;;;;;1.50;1.40;;;9.10;99.90;;;;;;5100022;28;20588;-80
2022/04/07 02:50:51;;;;;;;1.98;1.33;;;9.10;99.90;;;;;;5105616;28;20217;-82
2022/04/07 02:53:18;;;;;;;1.60;1.40;;;9.10;99.90;;;;;;5107438;28;20228;-82
2022/04/07 02:55:44;;;;;;;1.35;1.20;;;9.10;99.90;;;;;;5108027;28;20200;-81
2022/04/07 02:58:11;;;;;;;1.48;1.38;;;9.20;99.90;;;;;;5107089;28;20681;-82
2022/04/07 03:00:39;;;;;;;1.17;1.08;;;9.20;99.90;;;;;;5107327;28;20208;-82
2022/04/07 03:03:05;;;;;;;1.20;1.20;;;9.10;99.90;;;;;;5100326;28;20224;-80
2022/04/07 03:05:32;;;;;;;1.55;0.90;;;9.10;99.90;;;;;;5096769;28;20204;-80
2022/04/07 03:08:00;;;;;;;0.63;0.63;;;9.10;99.90;;;;;;5096897;28;20586;-80
2022/04/07 03:10:27;;;;;;;0.80;0.80;;;9.10;99.90;;;;;;5110212;28;20224;-79
2022/04/07 03:12:54;;;;;;;0.93;0.70;;;9.00;99.90;;;;;;5110751;28;20204;-80
2022/04/07 03:15:20;;;;;;;1.95;0.77;;;9.00;99.90;;;;;;5097278;28;20204;-80
2022/04/07 03:17:47;;;;;;;0.90;0.90;;;9.00;99.90;;;;;;5098929;28;20311;-82
2022/04/07 03:20:14;;;;;;;0.95;0.93;;;8.90;99.90;;;;;;5105328;28;20197;-81
2022/04/07 03:22:41;;;;;;;0.80;0.80;;;8.90;99.90;;;;;;5107744;28;20208;-80
2022/04/07 03:25:09;;;;;;;0.75;0.75;;;8.90;99.90;;;;;;5110638;28;20215;-81
2022/04/07 03:27:36;;;;;;;0.80;0.80;;;8.90;99.90;;;;;;5110059;28;20205;-80
2022/04/07 03:30:03;;;;;;;0.90;0.90;;;8.90;99.90;;;;;;5111704;28;20231;-81
2022/04/07 03:32:30;;;;;;;0.95;0.95;;;8.90;99.90;;;;;;5107046;28;20208;-82
2022/04/07 03:34:57;;;;;;;0.60;0.60;;;8.90;99.90;;;;;;5125961;22;20240;-80
2022/04/07 03:37:24;;;;;;;1.20;1.10;;;9.00;99.90;;;;;;5119226;28;20234;-81
2022/04/07 03:39:51;;;;;;;0.80;0.80;;;8.90;99.90;;;;;;5112047;28;20216;-81
2022/04/07 03:42:19;;;;;;;0.90;0.75;;;9.00;99.90;;;;;;5100924;28;20238;-81
2022/04/07 03:44:46;;;;;;;0.80;0.80;;;9.00;99.90;;;;;;5100719;28;20235;-81
2022/04/07 03:47:13;;;;;;;5.07;1.20;;;9.00;99.90;;;;;;5100432;28;20684;-81
2022/04/07 03:49:40;;;;;;;0.88;0.88;;;8.90;99.90;;;;;;5100020;28;20220;-81
2022/04/07 03:52:07;;;;;;;0.88;0.60;;;8.90;99.90;;;;;;5099772;28;20200;-81
2022/04/07 03:54:34;;;;;;;1.30;1.13;;;8.90;99.90;;;;;;5100367;28;20226;-81
2022/04/07 03:57:01;;;;;;;1.45;1.35;;;8.90;99.90;;;;;;5100255;28;20204;-81
2022/04/07 03:59:33;;;;;;;2.38;1.35;;;8.90;99.90;;;;;;5100436;28;20200;-81
2022/04/07 04:02:00;;;;;;;0.90;0.90;;;8.80;99.90;;;;;;5099831;28;20680;-81
2022/04/07 04:04:27;;;;;;;0.95;0.90;;;8.80;99.90;;;;;;5100189;28;20219;-81
2022/04/07 04:06:53;;;;;;;1.40;1.00;;;8.90;99.90;;;;;;5099900;28;20282;-80
2022/04/07 04:09:20;;;;;;;1.08;1.08;;;9.00;99.90;;;;;;5100358;28;20204;-81
2022/04/07 04:11:47;;;;;;;1.30;1.17;;;8.90;99.90;;;;;;5099658;28;20208;-81
2022/04/07 04:14:13;;;;;;;1.83;1.00;;;8.90;99.90;;;;;;5101075;28;20220;-81
2022/04/07 04:16:42;;;;;;;0.90;0.90;;;9.00;99.90;;;;;;5101748;28;20548;-81
2022/04/07 04:19:09;;;;;;;0.80;0.80;;;9.00;99.90;;;;;;5100907;28;20204;-80
2022/04/07 04:21:36;;;;;;;0.98;0.88;;;9.00;99.90;;;;;;5099615;28;20192;-81
2022/04/07 04:24:03;;;;;;;0.77;0.77;;;9.00;99.90;;;;;;5100451;28;20223;-80
2022/04/07 04:26:29;;;;;;;1.10;1.10;;;9.00;99.90;;;;;;5099010;28;20224;-81
2022/04/07 04:28:56;;;;;;;1.23;1.15;;;9.00;99.90;;;;;;5099481;28;20211;-81
2022/04/07 04:31:24;;;;;;;1.38;0.80;;;9.10;99.90;;;;;;5099655;28;20220;-81
2022/04/07 04:33:52;;;;;;;0.90;0.90;;;9.10;99.90;;;;;;5099255;28;20289;-81
2022/04/07 04:36:19;;;;;;;1.55;1.45;;;9.10;99.90;;;;;;5099735;28;20201;-80
2022/04/07 04:38:46;;;;;;;1.30;0.88;;;9.20;99.90;;;;;;5099683;28;20215;-81
2022/04/07 04:41:13;;;;;;;1.05;0.70;;;9.10;99.90;;;;;;5099867;28;20573;-81
2022/04/07 04:43:39;;;;;;;0.70;0.70;;;9.10;99.90;;;;;;5099180;28;20231;-81
2022/04/07 04:46:07;;;;;;;1.73;1.20;;;9.20;99.90;;;;;;5098626;28;20227;-81
2022/04/07 04:48:34;;;;;;;0.77;0.77;;;9.20;99.90;;;;;;5099606;28;20311;-80
2022/04/07 04:51:03;;;;;;;0.80;0.80;;;9.20;99.90;;;;;;5101520;28;20228;-80
2022/04/07 04:53:29;;;;;;;1.02;0.93;;;9.20;99.90;;;;;;5099859;28;20229;-81
2022/04/07 04:55:56;;;;;;;0.90;0.90;;;9.20;99.90;;;;;;5099803;28;20275;-81
2022/04/07 04:58:23;;;;;;;0.60;0.60;;;9.30;99.90;;;;;;5078904;28;20208;-81
2022/04/07 05:00:52;;;;;;;0.68;0.68;;;9.20;99.90;;;;;;5095309;28;20200;-82
2022/04/07 05:03:18;;;;;;;0.73;0.73;;;9.30;99.90;;;;;;5099444;28;20231;-81
2022/04/07 05:05:45;;;;;;;0.52;0.52;;;9.30;99.90;;;;;;5099325;28;20208;-80
2022/04/07 05:08:13;;;;;;;0.60;0.60;;;9.30;99.90;;;;;;5099922;28;20228;-82
2022/04/07 05:10:40;;;;;;;1.15;1.05;;;9.40;99.90;;;;;;5098149;28;20589;-81
2022/04/07 05:13:07;;;;;;;0.93;0.93;;;9.40;99.90;;;;;;5099398;28;20205;-81
2022/04/07 05:15:35;;;;;;;0.88;0.88;;;9.40;99.90;;;;;;5099008;28;20681;-82
2022/04/07 05:18:02;;;;;;;0.80;0.70;;;9.40;99.90;;;;;;5100082;28;20234;-83
2022/04/07 05:20:29;;;;;;;0.80;0.80;;;9.40;99.90;;;;;;5099630;28;20573;-82
2022/04/07 05:22:56;;;;;;;1.10;0.95;;;9.40;99.90;;;;;;5099460;28;20219;-82
2022/04/07 05:25:24;;;;;;;0.50;0.50;;;9.40;99.90;;;;;;5099402;28;20204;-83
2022/04/07 05:27:51;;;;;;;0.70;0.70;;;9.30;99.90;;;;;;5099617;28;20204;-83
2022/04/07 05:30:18;;;;;;;0.70;0.70;;;9.30;99.90;;;;;;5100033;28;20716;-82
2022/04/07 05:32:45;;;;;;;0.90;0.90;;;9.20;99.90;;;;;;5101586;28;20291;-82
2022/04/07 05:35:12;;;;;;;0.90;0.90;;;9.20;99.90;;;;;;5108781;28;20233;-82
2022/04/07 05:37:39;;;;;;;0.90;0.75;;;9.30;99.90;;;;;;5109136;28;20196;-82
2022/04/07 05:40:09;;;;;;;0.47;0.47;;;9.30;99.90;;;;;;5108413;28;20193;-82
2022/04/07 05:42:37;;;;;;;1.02;0.80;;;9.30;99.90;;;;;;5100494;28;20212;-83
2022/04/07 05:45:05;;;;;;;0.63;0.63;;;9.40;99.90;;;;;;5100552;28;20225;-83
2022/04/07 05:47:38;;;;;;;0.60;0.60;;;9.40;99.90;;;;;;5100766;28;20208;-83
2022/04/07 05:50:06;;;;;;;0.68;0.60;;;9.50;99.90;;;;;;5100068;28;20223;-82
2022/04/07 05:52:33;;;;;;;0.50;0.50;;;9.50;99.90;;;;;;5101172;28;20205;-82
2022/04/07 05:54:59;;;;;;;0.55;0.55;;;9.50;99.90;;;;;;5109748;28;20225;-82
2022/04/07 05:57:27;;;;;;;1.00;1.00;;;9.60;99.90;;;;;;5110639;28;20205;-81
2022/04/07 05:59:55;;;;;;;0.70;0.70;;;9.70;99.90;;;;;;5112418;28;20207;-82
2022/04/07 06:02:21;;;;;;;0.63;0.45;;;9.80;99.90;;;;;;5104562;28;20212;-82
2022/04/07 06:04:48;;;;;;;0.35;0.35;;;9.80;99.90;;;;;;5105699;28;20225;-82
2022/04/07 06:07:15;;;;;;;1.00;0.50;;;9.80;99.90;;;;;;5104562;28;20223;-83
2022/04/07 06:09:42;;;;;;;3.25;0.60;;;9.90;99.90;;;;;;5103643;28;20290;-83
2022/04/07 06:12:09;;;;;;;0.50;0.40;;;9.90;99.90;;;;;;5102055;28;20225;-83
2022/04/07 06:14:36;;;;;;;1.25;0.45;;;9.90;99.90;;;;;;5102962;28;20281;-83
2022/04/07 06:17:04;;;;;;;0.40;0.40;;;9.90;99.90;;;;;;5102497;28;20211;-83
2022/04/07 06:19:31;;;;;;;0.50;0.50;;;10.00;99.90;;;;;;5103016;28;20209;-83
2022/04/07 06:21:58;;;;;;;0.85;0.85;;;10.10;99.90;;;;;;5101996;28;20193;-83
2022/04/07 06:24:24;;;;;;;0.40;0.40;;;10.20;99.90;;;;;;5103572;28;20220;-83
2022/04/07 06:26:51;;;;;;;0.50;0.50;;;10.30;99.90;;;;;;5102298;28;20669;-83
2022/04/07 06:29:18;;;;;;;0.50;0.50;;;10.40;99.90;;;;;;5102957;28;20203;-83
2022/04/07 06:31:45;;;;;;;0.60;0.60;;;10.40;99.90;;;;;;5101543;28;20229;-82
2022/04/07 06:34:13;;;;;;;0.50;0.40;;;10.50;99.90;;;;;;5101323;28;20227;-83
2022/04/07 06:36:39;;;;;;;0.40;0.40;;;10.60;99.90;;;;;;5101384;28;20459;-83
2022/04/07 06:39:06;;;;;;;0.43;0.40;;;10.40;99.90;;;;;;5100555;28;20202;-83
2022/04/07 06:41:33;;;;;;;1.25;0.43;;;10.50;99.90;;;;;;5101739;28;20201;-82
2022/04/07 06:44:00;;;;;;;0.80;0.47;;;10.40;99.90;;;;;;5101388;28;20259;-82
2022/04/07 06:46:27;;;;;;;0.70;0.60;;;10.50;99.90;;;;;;5102138;28;20194;-82
2022/04/07 06:48:54;;;;;;;0.55;0.55;;;10.50;99.90;;;;;;5102656;28;20201;-82
2022/04/07 06:51:22;;;;;;;1.48;0.52;;;10.50;99.90;;;;;;5102180;28;20233;-82
2022/04/07 06:53:48;;;;;;;0.77;0.30;;;10.40;99.90;;;;;;5102746;28;20237;-81
2022/04/07 06:56:15;;;;;;;0.65;0.30;;;10.40;99.90;;;;;;5100871;28;20204;-82
2022/04/07 06:58:42;;;;;;;0.40;0.40;;;10.40;99.90;;;;;;5102125;28;20662;-83
2022/04/07 07:01:09;;;;;;;0.40;0.40;;;10.40;99.90;;;;;;5103350;28;20208;-82
2022/04/07 07:03:36;;;;;;;0.30;0.30;;;10.50;99.90;;;;;;5102795;28;20224;-82
2022/04/07 07:06:03;;;;;;;0.93;0.50;;;10.50;99.90;;;;;;5103390;28;20203;-83
2022/04/07 07:08:31;;;;;;;1.05;0.50;;;10.50;99.90;;;;;;5102756;28;20206;-82
2022/04/07 07:10:58;;;;;;;0.70;0.60;;;10.50;99.90;;;;;;5100863;28;20226;-80
2022/04/07 07:13:25;;;;;;;0.35;0.35;;;10.50;99.90;;;;;;5102198;28;20229;-85
2022/04/07 07:15:57;;;;;;;2.15;0.50;;;10.60;99.90;;;;;;5103324;28;20187;-84
2022/04/07 07:18:24;;;;;;;2.25;0.80;;;10.80;99.90;;;;;;5102607;28;20211;-85
2022/04/07 07:20:51;;;;;;;0.40;0.40;;;11.00;99.90;;;;;;5102379;28;20213;-85
2022/04/07 07:23:18;;;;;;;0.30;0.30;;;11.00;99.90;;;;;;5102266;28;20225;-85
2022/04/07 07:25:47;;;;;;;1.33;1.00;;;11.00;99.90;;;;;;5102318;28;20447;-85
2022/04/07 07:28:14;;;;;;;0.68;0.40;;;11.10;99.90;;;;;;5101831;28;20556;-85
2022/04/07 07:30:40;;;;;;;0.77;0.30;;;11.10;99.90;;;;;;5101484;28;20566;-84
2022/04/07 07:33:09;;;;;;;0.40;0.40;;;11.10;99.90;;;;;;5101414;28;21089;-85
2022/04/07 07:35:36;;;;;;;0.60;0.53;;;11.30;99.90;;;;;;5101900;28;20466;-85
2022/04/07 07:38:04;;;;;;;0.40;0.40;;;11.30;99.90;;;;;;5102961;28;20941;-85
2022/04/07 07:40:33;;;;;;;0.50;0.30;;;11.40;99.90;;;;;;5102601;28;20457;-85
2022/04/07 07:43:02;;;;;;;1.67;1.00;;;11.50;99.90;;;;;;5101994;28;20457;-85
2022/04/07 07:45:30;;;;;;;0.40;0.40;;;11.60;99.90;;;;;;5102398;28;20493;-85
2022/04/07 07:47:57;;;;;;;0.50;0.50;;;11.60;99.90;;;;;;5102549;28;20453;-84
2022/04/07 07:50:24;;;;;;;0.43;0.43;;;11.70;99.90;;;;;;5101733;28;20988;-85
2022/04/07 07:52:51;;;;;;;0.90;0.57;;;11.70;99.90;;;;;;5101899;28;20814;-85
2022/04/07 07:55:18;;;;;;;0.50;0.40;;;11.70;99.90;;;;;;5101544;28;20449;-85
2022/04/07 07:57:45;;;;;;;0.93;0.50;;;11.80;99.90;;;;;;5101489;28;20451;-85
2022/04/07 08:00:17;;;;;;;1.67;0.50;;;11.80;99.90;;;;;;5101774;28;20457;-85
2022/04/07 08:02:44;;;;;;;0.30;0.30;;;11.80;99.90;;;;;;5101475;28;20444;-85
2022/04/07 08:05:12;;;;;;;0.30;0.30;;;11.80;99.90;;;;;;5102699;28;20470;-85
2022/04/07 08:07:39;;;;;;;0.60;0.60;;;11.70;99.90;;;;;;5101492;28;20552;-85
2022/04/07 08:10:07;;;;;;;0.60;0.30;;;11.80;99.90;;;;;;5101554;28;20456;-85
2022/04/07 08:12:34;;;;;;;1.00;0.50;;;11.80;99.90;;;;;;5101869;28;20493;-85
2022/04/07 08:15:01;;;;;;;0.30;0.30;;;11.90;99.90;;;;;;5102042;28;20461;-85
2022/04/07 08:17:29;;;;;;;0.60;0.60;;;11.90;99.90;;;;;;5101437;28;20984;-85
2022/04/07 08:19:56;;;;;;;0.37;0.37;;;12.10;99.90;;;;;;5102288;28;20465;-85
2022/04/07 08:22:22;;;;;;;0.40;0.40;;;12.00;99.90;;;;;;5101179;28;20449;-85
2022/04/07 08:24:49;;;;;;;0.40;0.40;;;12.00;99.90;;;;;;5102207;28;20477;-85
2022/04/07 08:27:16;;;;;;;0.50;0.50;;;12.10;99.90;;;;;;5101275;28;20788;-85
2022/04/07 08:29:43;;;;;;;0.60;0.50;;;12.30;99.90;;;;;;5103688;28;20454;-85
2022/04/07 08:32:10;;;;;;;0.40;0.40;;;12.20;99.90;;;;;;5107539;28;20485;-85
2022/04/07 08:34:38;;;;;;;0.50;0.50;;;12.30;99.90;;;;;;5100862;28;20481;-85
2022/04/07 08:37:05;;;;;;;0.60;0.40;;;12.50;99.90;;;;;;5100938;28;20442;-85
2022/04/07 08:39:31;;;;;;;0.70;0.50;;;12.70;99.90;;;;;;5100845;28;20456;-85
2022/04/07 08:41:59;;;;;;;0.53;0.50;;;12.70;99.90;;;;;;5102113;28;20452;-85
2022/04/07 08:44:31;;;;;;;1.80;0.50;;;12.50;99.90;;;;;;5101254;28;20484;-85
2022/04/07 08:46:59;;;;;;;0.77;0.77;;;12.60;99.90;;;;;;5102156;28;20460;-84
2022/04/07 08:49:28;;;;;;;2.00;0.47;;;12.60;99.90;;;;;;5101028;28;20506;-85
2022/04/07 08:51:56;;;;;;;0.50;0.30;;;12.60;99.90;;;;;;5101315;28;20527;-83
2022/04/07 08:54:24;;;;;;;0.40;0.40;;;12.70;99.90;;;;;;5101742;28;20543;-85
2022/04/07 08:56:51;;;;;;;0.53;0.50;;;12.90;99.90;;;;;;5100803;28;20457;-84
2022/04/07 08:59:18;;;;;;;0.67;0.63;;;13.00;99.90;;;;;;5101481;28;20472;-84
2022/04/07 09:01:45;;;;;;;0.60;0.60;;;13.10;99.90;;;;;;5101032;28;20445;-86
2022/04/07 09:04:12;;;;;;;0.40;0.33;;;13.20;99.90;;;;;;5101173;28;20466;-86
2022/04/07 09:06:40;;;;;;;0.30;0.30;;;13.10;99.40;;;;;;5101457;28;20495;-85
2022/04/07 09:09:16;;;;;;;0.47;0.40;;;13.00;99.20;;;;;;5101226;28;20449;-86
2022/04/07 09:11:44;;;;;;;0.93;0.30;;;13.00;99.40;;;;;;5101705;28;20484;-85
2022/04/07 09:14:12;;;;;;;0.50;0.50;;;12.90;99.10;;;;;;5101424;28;20526;-85
2022/04/07 09:16:40;;;;;;;0.20;0.20;;;12.80;99.10;;;;;;5100682;28;20934;-85
2022/04/07 09:19:08;;;;;;;0.50;0.40;;;12.80;99.50;;;;;;5101143;28;20506;-86
2022/04/07 09:21:35;;;;;;;0.50;0.40;;;12.80;99.10;;;;;;5100568;28;20467;-84
2022/04/07 09:24:05;;;;;;;0.30;0.30;;;12.70;99.50;;;;;;5101146;28;20739;-83
2022/04/07 09:26:35;;;;;;;0.50;0.40;;;12.60;99.80;;;;;;5101423;28;20968;-84
2022/04/07 09:29:09;;;;;;;0.50;0.50;;;12.60;99.90;;;;;;5101120;28;20471;-84
2022/04/07 09:31:39;;;;;;;0.43;0.30;;;12.50;99.70;;;;;;5102074;28;20550;-84
2022/04/07 09:34:07;;;;;;;0.70;0.47;;;12.60;99.80;;;;;;5153514;22;20569;-81
2022/04/07 09:36:34;;;;;;;0.30;0.30;;;12.60;99.60;;;;;;5102963;28;20942;-81
2022/04/07 09:39:02;;;;;;;0.40;0.40;;;12.50;99.50;;;;;;5102253;28;20453;-81
2022/04/07 09:41:31;;;;;;;0.47;0.47;;;12.40;99.60;;;;;;5105741;28;20455;-81
2022/04/07 09:44:01;;;;;;;0.90;0.57;;;12.40;99.90;;;;;;5105482;28;20471;-81
2022/04/07 09:46:33;;;;;;;3.13;1.70;;;12.20;99.90;;;;;;5110424;28;20588;-81
2022/04/07 09:49:02;;;;;;;1.60;0.50;;;12.10;99.90;;;;;;5111002;28;20449;-81
2022/04/07 09:51:29;;;;;;;0.63;0.63;;;11.80;99.90;;;;;;5109188;28;20488;-81
2022/04/07 09:53:57;;;;;;;0.43;0.30;;;11.90;99.90;;;;;;5109702;28;20480;-81
2022/04/07 09:56:28;;;;;;;0.40;0.40;;;11.80;99.90;;;;;;5108869;28;20445;-81
2022/04/07 09:58:55;;;;;;;0.40;0.37;;;12.00;99.90;;;;;;5102550;28;20946;-81
2022/04/07 10:01:24;;;;;;;2.77;0.40;;;12.10;99.90;;;;;;5101857;28;20448;-81
2022/04/07 10:03:52;;;;;;;1.37;0.50;;;12.30;99.90;;;;;;5102635;28;20476;-81
2022/04/07 10:06:19;;;;;;;0.97;0.60;;;12.60;99.90;;;;;;5101974;28;20458;-81
2022/04/07 10:08:49;;;;;;;0.60;0.60;;;12.60;99.90;;;;;;5102185;28;20926;-82
2022/04/07 10:11:17;;;;;;;0.40;0.40;;;12.70;99.90;;;;;;5101821;28;20450;-81
2022/04/07 10:13:44;;;;;;;0.50;0.50;;;12.80;99.90;;;;;;5102175;28;20503;-81
2022/04/07 10:16:12;;;;;;;0.60;0.60;;;13.00;99.90;;;;;;5102379;28;20442;-81
2022/04/07 10:18:46;;;;;;;0.43;0.43;;;13.10;99.90;;;;;;5102087;28;20950;-81
2022/04/07 10:21:24;;;;;;;0.40;0.40;;;13.10;99.90;;;;;;5101420;28;20451;-81
2022/04/07 10:24:03;;;;;;;0.30;0.30;;;13.00;99.90;;;;;;5102761;28;20462;-81
2022/04/07 10:26:32;;;;;;;1.10;0.50;;;13.00;99.60;;;;;;5101644;28;20457;-81
2022/04/07 10:28:59;;;;;;;0.30;0.30;;;13.00;99.60;;;;;;5101996;28;20454;-81
2022/04/07 10:31:26;;;;;;;0.30;0.30;;;13.00;99.60;;;;;;5102200;28;20456;-81
2022/04/07 10:34:06;;;;;;;0.30;0.30;;;12.90;99.50;;;;;;5102172;28;20481;-81
2022/04/07 10:36:38;;;;;;;2.50;0.40;;;13.10;99.60;;;;;;5101842;28;20456;-81
2022/04/07 10:39:12;;;;;;;1.70;0.77;;;12.90;99.80;;;;;;5101984;28;20464;-81
2022/04/07 10:41:51;;;;;;;0.40;0.20;;;12.90;99.90;;;;;;5101448;28;20449;-82
2022/04/07 10:44:19;;;;;;;0.30;0.30;;;13.00;99.90;;;;;;5101506;28;20505;-82
2022/04/07 10:46:46;;;;;;;1.00;1.00;;;13.00;99.90;;;;;;5101350;28;20943;-82
2022/04/07 10:49:23;;;;;;;0.30;0.30;;;13.00;99.90;;;;;;5101260;28;20452;-81
2022/04/07 10:51:52;;;;;;;0.20;0.20;;;13.10;99.90;;;;;;5101216;28;20488;-82
2022/04/07 10:54:21;;;;;;;0.30;0.30;;;13.10;99.90;;;;;;5101364;28;20471;-81
2022/04/07 10:56:49;;;;;;;0.40;0.30;;;13.00;99.90;;;;;;5101396;28;20868;-81
2022/04/07 10:59:21;;;;;;;0.77;0.30;;;12.90;99.90;;;;;;5101083;28;20442;-81
2022/04/07 11:02:02;;;;;;;0.67;0.67;;;13.00;99.90;;;;;;5100911;28;20450;-81
2022/04/07 11:04:38;;;;;;;0.30;0.23;;;12.90;99.90;;;;;;5102065;28;20496;-81
2022/04/07 11:07:22;;;;;;;2.10;0.40;;;13.00;99.90;;;;;;5101381;28;20459;-81
2022/04/07 11:09:53;;;;;;;0.70;0.40;;;13.00;99.90;;;;;;5101698;28;20446;-82
2022/04/07 11:12:22;;;;;;;0.20;0.20;;;13.10;99.90;;;;;;5100548;28;20489;-81
2022/04/07 11:14:51;;;;;;;0.27;0.27;;;13.10;99.90;;;;;;5101012;28;20466;-81
2022/04/07 11:17:26;;;;;;;1.27;0.40;;;13.10;99.90;;;;;;5100807;28;20454;-82
2022/04/07 11:20:04;;;;;;;1.00;0.50;;;13.00;99.40;;;;;;5101208;28;20449;-82
2022/04/07 11:22:53;;;;;;;0.37;0.37;;;13.30;99.60;;;;;;5101443;28;20533;-82
2022/04/07 11:25:31;;;;;;;1.07;0.97;;;13.40;98.90;;;;;;5101004;28;20474;-82
2022/04/07 11:28:13;;;;;;;1.13;0.30;;;13.40;99.30;;;;;;5100988;28;20442;-82
2022/04/07 11:30:43;;;;;;;0.60;0.40;;;13.50;98.70;;;;;;5100439;28;20482;-82
2022/04/07 11:33:38;;;;;;;0.87;0.27;;;13.40;98.80;;;;;;5100974;28;20488;-82
2022/04/07 11:36:37;;;;;;;0.40;0.40;;;13.50;99.00;;;;;;5110696;28;20453;-82
2022/04/07 11:39:04;;;;;;;0.70;0.33;;;13.70;98.40;;;;;;5112929;28;20524;-82
2022/04/07 11:41:41;;;;;;;1.13;0.30;;;13.70;98.90;;;;;;5100359;28;20506;-82
2022/04/07 11:44:09;;;;;;;0.30;0.30;;;13.70;98.50;;;;;;5099736;28;20517;-81
2022/04/07 11:46:36;;;;;;;0.30;0.30;;;13.80;98.40;;;;;;5104535;28;20443;-78
2022/04/07 11:49:04;;;;;;;0.80;0.37;;;13.70;98.70;;;;;;5099114;28;20442;-79
2022/04/07 11:51:35;;;;;;;1.17;0.40;;;13.40;99.30;;;;;;5094957;28;20439;-82
2022/04/07 11:54:03;;;;;;;0.30;0.30;;;13.30;99.90;;;;;;5089666;28;20497;-81
2022/04/07 11:56:31;;;;;;;0.33;0.33;;;13.20;99.50;;;;;;5094859;28;20452;-82
2022/04/07 11:59:00;;;;;;;0.20;0.20;;;13.20;99.70;;;;;;5099437;28;20458;-82
2022/04/07 12:01:28;;;;;;;0.20;0.20;;;13.10;99.90;;;;;;5099534;28;20446;-82
2022/04/07 12:03:56;;;;;;;0.40;0.23;;;12.90;99.70;;;;;;5080905;28;20470;-83
2022/04/07 12:06:23;;;;;;;0.70;0.30;;;12.80;99.90;;;;;;5083864;28;20801;-82
2022/04/07 12:08:52;;;;;;;0.70;0.30;;;12.80;99.90;;;;;;5097324;28;20446;-82
2022/04/07 12:11:19;;;;;;;0.77;0.30;;;12.70;99.90;;;;;;5094078;28;20445;-82
2022/04/07 12:13:46;;;;;;;0.50;0.30;;;12.80;99.90;;;;;;5096446;28;20498;-83
2022/04/07 12:16:14;;;;;;;0.43;0.20;;;12.80;99.90;;;;;;5095964;28;20824;-81
2022/04/07 12:18:41;;;;;;;0.30;0.23;;;12.50;99.90;;;;;;5095744;28;20680;-82
2022/04/07 12:21:09;;;;;;;0.40;0.33;;;12.40;99.90;;;;;;5094777;28;20453;-80
2022/04/07 12:23:37;;;;;;;0.33;0.33;;;12.30;99.90;;;;;;5096389;28;20492;-81
2022/04/07 12:26:06;;;;;;;0.30;0.30;;;12.40;99.90;;;;;;5101101;28;20551;-82
2022/04/07 12:28:38;;;;;;;0.40;0.30;;;12.30;99.90;;;;;;5101544;28;20446;-82
2022/04/07 12:31:05;;;;;;;0.40;0.30;;;12.20;99.90;;;;;;5101515;28;20473;-82
2022/04/07 12:33:42;;;;;;;0.40;0.30;;;12.20;99.90;;;;;;5089896;28;20485;-81
2022/04/07 12:36:11;;;;;;;0.50;0.50;;;12.20;99.90;;;;;;5094366;28;20461;-82
2022/04/07 12:38:38;;;;;;;0.30;0.20;;;12.20;99.90;;;;;;5105220;28;20457;-83
2022/04/07 12:41:14;;;;;;;0.37;0.30;;;12.10;99.90;;;;;;5105073;28;20954;-82
2022/04/07 12:43:50;;;;;;;0.30;0.30;;;12.10;99.90;;;;;;5102687;28;20999;-82
2022/04/07 12:46:17;;;;;;;0.70;0.40;;;12.10;99.90;;;;;;5100870;28;20453;-82
2022/04/07 12:49:00;;;;;;;0.50;0.50;;;12.10;99.90;;;;;;5100811;28;20453;-81
2022/04/07 12:51:27;;;;;;;0.30;0.20;;;12.20;99.90;;;;;;5098875;28;20832;-81
2022/04/07 12:54:06;;;;;;;0.40;0.30;;;12.20;99.90;;;;;;5099556;28;20497;-81
2022/04/07 12:56:35;;;;;;;0.33;0.30;;;12.10;99.90;;;;;;5101322;28;20453;-82
2022/04/07 12:59:03;;;;;;;0.20;0.20;;;12.20;99.90;;;;;;5102230;28;20457;-81